sensor_id;sensor_type;location;lat;lon;timestamp;P1;durP1;ratioP1;P2;durP2;ratioP2
17955;SDS011;27666;51.498;11.966;2023-03-01T00:00:13;20.07;;;7.70;;
17955;SDS011;27666;51.498;11.966;2023-03-01T00:03:01;17.93;;;8.87;;
17955;SDS011;27666;51.498;11.966;2023-03-01T00:05:48;18.33;;;9.60;;
17955;SDS011;27666;51.498;11.966;2023-03-01T00:08:34;15.20;;;8.53;;
17955;SDS011;27666;51.498;11.966;2023-03-01T00:11:22;15.20;;;8.77;;
17955;SDS011;27666;51.498;11.966;2023-03-01T00:14:10;13.07;;;8.57;;
17955;SDS011;27666;51.498;11.966;2023-03-01T00:16:57;16.00;;;9.60;;
17955;SDS011;27666;51.498;11.966;2023-03-01T00:19:45;15.63;;;8.83;;
17955;SDS011;27666;51.498;11.966;2023-03-01T00:22:31;15.83;;;10.57;;
17955;SDS011;27666;51.498;11.966;2023-03-01T00:25:18;28.73;;;12.57;;
17955;SDS011;27666;51.498;11.966;2023-03-01T00:28:04;19.23;;;10.77;;
17955;SDS011;27666;51.498;11.966;2023-03-01T00:30:51;22.20;;;11.17;;
17955;SDS011;27666;51.498;11.966;2023-03-01T00:33:37;27.23;;;13.40;;
17955;SDS011;27666;51.498;11.966;2023-03-01T00:36:26;35.70;;;13.87;;
17955;SDS011;27666;51.498;11.966;2023-03-01T00:39:15;35.23;;;15.03;;
17955;SDS011;27666;51.498;11.966;2023-03-01T00:42:02;40.23;;;18.80;;
17955;SDS011;27666;51.498;11.966;2023-03-01T00:44:48;27.07;;;12.57;;
17955;SDS011;27666;51.498;11.966;2023-03-01T00:47:35;23.73;;;11.97;;
17955;SDS011;27666;51.498;11.966;2023-03-01T00:50:21;22.67;;;11.97;;
17955;SDS011;27666;51.498;11.966;2023-03-01T00:53:10;21.67;;;11.13;;
17955;SDS011;27666;51.498;11.966;2023-03-01T00:55:57;27.57;;;13.70;;
17955;SDS011;27666;51.498;11.966;2023-03-01T00:58:45;20.50;;;12.07;;
17955;SDS011;27666;51.498;11.966;2023-03-01T01:01:32;19.57;;;11.20;;
17955;SDS011;27666;51.498;11.966;2023-03-01T01:04:18;20.83;;;10.97;;
17955;SDS011;27666;51.498;11.966;2023-03-01T01:07:05;18.80;;;10.70;;
17955;SDS011;27666;51.498;11.966;2023-03-01T01:09:53;21.87;;;11.23;;
17955;SDS011;27666;51.498;11.966;2023-03-01T01:12:40;20.37;;;9.77;;
17955;SDS011;27666;51.498;11.966;2023-03-01T01:15:26;16.10;;;10.33;;
17955;SDS011;27666;51.498;11.966;2023-03-01T01:18:12;17.80;;;10.67;;
17955;SDS011;27666;51.498;11.966;2023-03-01T01:21:05;21.23;;;10.90;;
17955;SDS011;27666;51.498;11.966;2023-03-01T01:23:53;24.63;;;11.33;;
17955;SDS011;27666;51.498;11.966;2023-03-01T01:26:40;22.37;;;10.80;;
17955;SDS011;27666;51.498;11.966;2023-03-01T01:29:28;22.30;;;11.53;;
17955;SDS011;27666;51.498;11.966;2023-03-01T01:32:14;21.07;;;12.10;;
17955;SDS011;27666;51.498;11.966;2023-03-01T01:35:00;22.50;;;12.87;;
17955;SDS011;27666;51.498;11.966;2023-03-01T01:37:47;22.03;;;12.37;;
17955;SDS011;27666;51.498;11.966;2023-03-01T01:40:34;19.73;;;11.83;;
17955;SDS011;27666;51.498;11.966;2023-03-01T01:43:22;21.50;;;13.10;;
17955;SDS011;27666;51.498;11.966;2023-03-01T01:46:15;15.40;;;10.77;;
17955;SDS011;27666;51.498;11.966;2023-03-01T01:49:15;19.30;;;11.67;;
17955;SDS011;27666;51.498;11.966;2023-03-01T01:52:11;20.67;;;11.33;;
17955;SDS011;27666;51.498;11.966;2023-03-01T01:55:02;21.20;;;11.30;;
17955;SDS011;27666;51.498;11.966;2023-03-01T01:57:53;24.77;;;11.20;;
17955;SDS011;27666;51.498;11.966;2023-03-01T02:00:45;25.47;;;11.93;;
17955;SDS011;27666;51.498;11.966;2023-03-01T02:03:32;20.70;;;11.97;;
17955;SDS011;27666;51.498;11.966;2023-03-01T02:06:25;19.40;;;10.40;;
17955;SDS011;27666;51.498;11.966;2023-03-01T02:09:15;17.17;;;10.40;;
17955;SDS011;27666;51.498;11.966;2023-03-01T02:12:06;19.27;;;10.77;;
17955;SDS011;27666;51.498;11.966;2023-03-01T02:14:55;16.90;;;9.87;;
17955;SDS011;27666;51.498;11.966;2023-03-01T02:17:43;16.07;;;9.80;;
17955;SDS011;27666;51.498;11.966;2023-03-01T02:20:32;18.10;;;9.20;;
17955;SDS011;27666;51.498;11.966;2023-03-01T02:23:21;22.17;;;9.67;;
17955;SDS011;27666;51.498;11.966;2023-03-01T02:26:11;16.27;;;9.20;;
17955;SDS011;27666;51.498;11.966;2023-03-01T02:29:05;15.27;;;8.30;;
17955;SDS011;27666;51.498;11.966;2023-03-01T02:31:52;17.50;;;8.53;;
17955;SDS011;27666;51.498;11.966;2023-03-01T02:34:41;14.97;;;9.10;;
17955;SDS011;27666;51.498;11.966;2023-03-01T02:37:28;13.83;;;9.03;;
17955;SDS011;27666;51.498;11.966;2023-03-01T02:40:15;15.87;;;9.83;;
17955;SDS011;27666;51.498;11.966;2023-03-01T02:43:02;25.47;;;11.73;;
17955;SDS011;27666;51.498;11.966;2023-03-01T02:45:57;15.97;;;9.83;;
17955;SDS011;27666;51.498;11.966;2023-03-01T02:48:46;25.70;;;10.97;;
17955;SDS011;27666;51.498;11.966;2023-03-01T02:51:38;18.67;;;10.90;;
17955;SDS011;27666;51.498;11.966;2023-03-01T02:54:33;15.47;;;8.83;;
17955;SDS011;27666;51.498;11.966;2023-03-01T02:57:26;12.60;;;9.20;;
17955;SDS011;27666;51.498;11.966;2023-03-01T03:00:14;15.60;;;9.47;;
17955;SDS011;27666;51.498;11.966;2023-03-01T03:03:06;19.93;;;9.50;;
17955;SDS011;27666;51.498;11.966;2023-03-01T03:05:54;15.47;;;9.43;;
17955;SDS011;27666;51.498;11.966;2023-03-01T03:08:40;15.17;;;9.13;;
17955;SDS011;27666;51.498;11.966;2023-03-01T03:11:27;19.97;;;9.27;;
17955;SDS011;27666;51.498;11.966;2023-03-01T03:14:14;16.60;;;9.80;;
17955;SDS011;27666;51.498;11.966;2023-03-01T03:17:01;17.20;;;9.20;;
17955;SDS011;27666;51.498;11.966;2023-03-01T03:19:52;15.07;;;8.20;;
17955;SDS011;27666;51.498;11.966;2023-03-01T03:22:39;24.57;;;9.70;;
17955;SDS011;27666;51.498;11.966;2023-03-01T03:25:27;16.80;;;9.27;;
17955;SDS011;27666;51.498;11.966;2023-03-01T03:28:14;14.33;;;8.07;;
17955;SDS011;27666;51.498;11.966;2023-03-01T03:31:01;14.53;;;8.77;;
17955;SDS011;27666;51.498;11.966;2023-03-01T03:33:48;15.67;;;8.37;;
17955;SDS011;27666;51.498;11.966;2023-03-01T03:36:36;16.13;;;9.27;;
17955;SDS011;27666;51.498;11.966;2023-03-01T03:39:23;12.70;;;8.50;;
17955;SDS011;27666;51.498;11.966;2023-03-01T03:42:10;17.43;;;8.47;;
17955;SDS011;27666;51.498;11.966;2023-03-01T03:44:56;14.33;;;8.93;;
17955;SDS011;27666;51.498;11.966;2023-03-01T03:47:43;11.90;;;8.67;;
17955;SDS011;27666;51.498;11.966;2023-03-01T03:50:30;16.20;;;9.17;;
17955;SDS011;27666;51.498;11.966;2023-03-01T03:53:19;13.87;;;8.57;;
17955;SDS011;27666;51.498;11.966;2023-03-01T03:56:07;16.83;;;9.83;;
17955;SDS011;27666;51.498;11.966;2023-03-01T03:58:54;15.10;;;9.93;;
17955;SDS011;27666;51.498;11.966;2023-03-01T04:01:40;19.47;;;9.87;;
17955;SDS011;27666;51.498;11.966;2023-03-01T04:04:26;20.57;;;10.70;;
17955;SDS011;27666;51.498;11.966;2023-03-01T04:07:13;17.80;;;9.83;;
17955;SDS011;27666;51.498;11.966;2023-03-01T04:10:01;17.90;;;10.23;;
17955;SDS011;27666;51.498;11.966;2023-03-01T04:12:48;22.53;;;10.77;;
17955;SDS011;27666;51.498;11.966;2023-03-01T04:15:34;22.17;;;11.93;;
17955;SDS011;27666;51.498;11.966;2023-03-01T04:18:22;20.07;;;10.80;;
17955;SDS011;27666;51.498;11.966;2023-03-01T04:21:09;19.40;;;11.30;;
17955;SDS011;27666;51.498;11.966;2023-03-01T04:23:57;18.10;;;10.67;;
17955;SDS011;27666;51.498;11.966;2023-03-01T04:26:44;18.40;;;10.47;;
17955;SDS011;27666;51.498;11.966;2023-03-01T04:29:31;17.37;;;10.20;;
17955;SDS011;27666;51.498;11.966;2023-03-01T04:32:17;23.47;;;11.53;;
17955;SDS011;27666;51.498;11.966;2023-03-01T04:35:04;21.77;;;12.23;;
17955;SDS011;27666;51.498;11.966;2023-03-01T04:37:51;20.13;;;11.57;;
17955;SDS011;27666;51.498;11.966;2023-03-01T04:40:37;23.43;;;11.90;;
17955;SDS011;27666;51.498;11.966;2023-03-01T04:43:25;24.27;;;12.00;;
17955;SDS011;27666;51.498;11.966;2023-03-01T04:46:13;22.57;;;11.33;;
17955;SDS011;27666;51.498;11.966;2023-03-01T04:49:01;16.93;;;10.10;;
17955;SDS011;27666;51.498;11.966;2023-03-01T04:51:48;17.97;;;10.33;;
17955;SDS011;27666;51.498;11.966;2023-03-01T04:54:35;17.87;;;10.20;;
17955;SDS011;27666;51.498;11.966;2023-03-01T04:57:22;17.47;;;10.40;;
17955;SDS011;27666;51.498;11.966;2023-03-01T05:00:11;18.10;;;10.47;;
17955;SDS011;27666;51.498;11.966;2023-03-01T05:03:08;18.73;;;10.03;;
17955;SDS011;27666;51.498;11.966;2023-03-01T05:05:58;18.77;;;10.40;;
17955;SDS011;27666;51.498;11.966;2023-03-01T05:08:45;19.17;;;11.23;;
17955;SDS011;27666;51.498;11.966;2023-03-01T05:11:31;17.03;;;9.97;;
17955;SDS011;27666;51.498;11.966;2023-03-01T05:14:20;18.83;;;10.43;;
17955;SDS011;27666;51.498;11.966;2023-03-01T05:17:09;23.07;;;10.37;;
17955;SDS011;27666;51.498;11.966;2023-03-01T05:19:55;19.37;;;11.57;;
17955;SDS011;27666;51.498;11.966;2023-03-01T05:22:44;17.97;;;10.03;;
17955;SDS011;27666;51.498;11.966;2023-03-01T05:25:30;16.73;;;9.97;;
17955;SDS011;27666;51.498;11.966;2023-03-01T05:28:18;22.97;;;10.17;;
17955;SDS011;27666;51.498;11.966;2023-03-01T05:31:06;18.60;;;10.57;;
17955;SDS011;27666;51.498;11.966;2023-03-01T05:33:55;19.67;;;11.40;;
17955;SDS011;27666;51.498;11.966;2023-03-01T05:36:42;25.63;;;12.30;;
17955;SDS011;27666;51.498;11.966;2023-03-01T05:39:28;23.53;;;12.90;;
17955;SDS011;27666;51.498;11.966;2023-03-01T05:42:16;33.53;;;17.90;;
17955;SDS011;27666;51.498;11.966;2023-03-01T05:45:03;23.27;;;14.17;;
17955;SDS011;27666;51.498;11.966;2023-03-01T05:47:54;25.50;;;14.37;;
17955;SDS011;27666;51.498;11.966;2023-03-01T05:50:43;20.43;;;11.40;;
17955;SDS011;27666;51.498;11.966;2023-03-01T05:53:30;21.43;;;13.00;;
17955;SDS011;27666;51.498;11.966;2023-03-01T05:56:16;20.53;;;12.67;;
17955;SDS011;27666;51.498;11.966;2023-03-01T05:59:03;16.77;;;10.43;;
17955;SDS011;27666;51.498;11.966;2023-03-01T06:01:50;19.80;;;9.57;;
17955;SDS011;27666;51.498;11.966;2023-03-01T06:04:38;19.90;;;11.50;;
17955;SDS011;27666;51.498;11.966;2023-03-01T06:07:26;19.60;;;10.93;;
17955;SDS011;27666;51.498;11.966;2023-03-01T06:10:13;19.20;;;11.20;;
17955;SDS011;27666;51.498;11.966;2023-03-01T06:13:00;21.03;;;11.53;;
17955;SDS011;27666;51.498;11.966;2023-03-01T06:15:46;19.33;;;9.63;;
17955;SDS011;27666;51.498;11.966;2023-03-01T06:18:33;22.23;;;10.93;;
17955;SDS011;27666;51.498;11.966;2023-03-01T06:21:19;21.67;;;13.40;;
17955;SDS011;27666;51.498;11.966;2023-03-01T06:24:07;19.57;;;10.70;;
17955;SDS011;27666;51.498;11.966;2023-03-01T06:26:54;18.80;;;10.93;;
17955;SDS011;27666;51.498;11.966;2023-03-01T06:29:40;21.57;;;13.33;;
17955;SDS011;27666;51.498;11.966;2023-03-01T06:32:29;34.13;;;11.43;;
17955;SDS011;27666;51.498;11.966;2023-03-01T06:35:17;26.33;;;12.23;;
17955;SDS011;27666;51.498;11.966;2023-03-01T06:38:05;38.50;;;12.57;;
17955;SDS011;27666;51.498;11.966;2023-03-01T06:40:53;18.43;;;11.37;;
17955;SDS011;27666;51.498;11.966;2023-03-01T06:43:41;30.43;;;13.13;;
17955;SDS011;27666;51.498;11.966;2023-03-01T06:46:27;23.17;;;12.23;;
17955;SDS011;27666;51.498;11.966;2023-03-01T06:49:14;26.90;;;13.30;;
17955;SDS011;27666;51.498;11.966;2023-03-01T06:52:02;18.27;;;11.33;;
17955;SDS011;27666;51.498;11.966;2023-03-01T06:54:49;23.73;;;11.67;;
17955;SDS011;27666;51.498;11.966;2023-03-01T06:57:37;18.20;;;11.77;;
17955;SDS011;27666;51.498;11.966;2023-03-01T07:00:24;24.27;;;11.93;;
17955;SDS011;27666;51.498;11.966;2023-03-01T07:03:11;23.10;;;12.17;;
17955;SDS011;27666;51.498;11.966;2023-03-01T07:05:58;18.17;;;11.67;;
17955;SDS011;27666;51.498;11.966;2023-03-01T07:08:44;33.27;;;13.50;;
17955;SDS011;27666;51.498;11.966;2023-03-01T07:11:30;22.63;;;10.87;;
17955;SDS011;27666;51.498;11.966;2023-03-01T07:14:19;20.97;;;10.77;;
17955;SDS011;27666;51.498;11.966;2023-03-01T07:17:05;18.70;;;9.70;;
17955;SDS011;27666;51.498;11.966;2023-03-01T07:19:52;18.77;;;10.80;;
17955;SDS011;27666;51.498;11.966;2023-03-01T07:22:39;24.03;;;11.67;;
17955;SDS011;27666;51.498;11.966;2023-03-01T07:25:26;17.70;;;10.13;;
17955;SDS011;27666;51.498;11.966;2023-03-01T07:28:13;21.13;;;12.10;;
17955;SDS011;27666;51.498;11.966;2023-03-01T07:31:01;20.83;;;10.60;;
17955;SDS011;27666;51.498;11.966;2023-03-01T07:33:48;18.67;;;10.97;;
17955;SDS011;27666;51.498;11.966;2023-03-01T07:36:35;18.47;;;10.30;;
17955;SDS011;27666;51.498;11.966;2023-03-01T07:39:21;20.40;;;11.10;;
17955;SDS011;27666;51.498;11.966;2023-03-01T07:42:09;18.10;;;9.93;;
17955;SDS011;27666;51.498;11.966;2023-03-01T07:44:55;15.83;;;9.13;;
17955;SDS011;27666;51.498;11.966;2023-03-01T07:47:43;21.17;;;10.17;;
17955;SDS011;27666;51.498;11.966;2023-03-01T07:50:29;16.27;;;9.97;;
17955;SDS011;27666;51.498;11.966;2023-03-01T07:53:16;19.23;;;9.63;;
17955;SDS011;27666;51.498;11.966;2023-03-01T07:56:03;16.40;;;9.70;;
17955;SDS011;27666;51.498;11.966;2023-03-01T07:58:50;13.10;;;9.27;;
17955;SDS011;27666;51.498;11.966;2023-03-01T08:01:37;19.87;;;10.60;;
17955;SDS011;27666;51.498;11.966;2023-03-01T08:04:24;16.40;;;9.77;;
17955;SDS011;27666;51.498;11.966;2023-03-01T08:07:11;30.60;;;14.70;;
17955;SDS011;27666;51.498;11.966;2023-03-01T08:09:58;17.23;;;9.67;;
17955;SDS011;27666;51.498;11.966;2023-03-01T08:12:44;17.00;;;10.10;;
17955;SDS011;27666;51.498;11.966;2023-03-01T08:15:31;14.30;;;9.67;;
17955;SDS011;27666;51.498;11.966;2023-03-01T08:18:17;15.37;;;10.10;;
17955;SDS011;27666;51.498;11.966;2023-03-01T08:21:07;18.57;;;9.90;;
17955;SDS011;27666;51.498;11.966;2023-03-01T08:23:55;14.07;;;9.60;;
17955;SDS011;27666;51.498;11.966;2023-03-01T08:26:41;13.97;;;9.30;;
17955;SDS011;27666;51.498;11.966;2023-03-01T08:29:28;15.00;;;9.07;;
17955;SDS011;27666;51.498;11.966;2023-03-01T08:32:16;19.63;;;9.67;;
17955;SDS011;27666;51.498;11.966;2023-03-01T08:35:03;17.87;;;10.07;;
17955;SDS011;27666;51.498;11.966;2023-03-01T08:37:52;18.17;;;9.70;;
17955;SDS011;27666;51.498;11.966;2023-03-01T08:40:38;15.10;;;9.17;;
17955;SDS011;27666;51.498;11.966;2023-03-01T08:43:25;13.53;;;9.30;;
17955;SDS011;27666;51.498;11.966;2023-03-01T08:46:11;15.43;;;8.90;;
17955;SDS011;27666;51.498;11.966;2023-03-01T08:48:58;17.73;;;9.43;;
17955;SDS011;27666;51.498;11.966;2023-03-01T08:51:46;23.23;;;12.57;;
17955;SDS011;27666;51.498;11.966;2023-03-01T08:54:35;22.13;;;9.00;;
17955;SDS011;27666;51.498;11.966;2023-03-01T08:57:22;16.57;;;9.23;;
17955;SDS011;27666;51.498;11.966;2023-03-01T09:00:08;27.70;;;13.70;;
17955;SDS011;27666;51.498;11.966;2023-03-01T09:02:59;17.53;;;10.00;;
17955;SDS011;27666;51.498;11.966;2023-03-01T09:05:46;18.87;;;11.60;;
17955;SDS011;27666;51.498;11.966;2023-03-01T09:08:34;18.57;;;10.20;;
17955;SDS011;27666;51.498;11.966;2023-03-01T09:11:23;19.60;;;10.47;;
17955;SDS011;27666;51.498;11.966;2023-03-01T09:14:09;14.80;;;10.40;;
17955;SDS011;27666;51.498;11.966;2023-03-01T09:16:58;15.77;;;9.53;;
17955;SDS011;27666;51.498;11.966;2023-03-01T09:19:47;20.07;;;11.80;;
17955;SDS011;27666;51.498;11.966;2023-03-01T09:22:34;16.33;;;10.07;;
17955;SDS011;27666;51.498;11.966;2023-03-01T09:25:20;19.60;;;10.10;;
17955;SDS011;27666;51.498;11.966;2023-03-01T09:28:08;18.53;;;9.63;;
17955;SDS011;27666;51.498;11.966;2023-03-01T09:31:13;23.57;;;11.10;;
17955;SDS011;27666;51.498;11.966;2023-03-01T09:33:59;17.63;;;9.77;;
17955;SDS011;27666;51.498;11.966;2023-03-01T09:36:46;16.27;;;9.13;;
17955;SDS011;27666;51.498;11.966;2023-03-01T09:39:32;16.13;;;10.10;;
17955;SDS011;27666;51.498;11.966;2023-03-01T09:42:19;17.30;;;9.83;;
17955;SDS011;27666;51.498;11.966;2023-03-01T09:45:10;18.40;;;10.77;;
17955;SDS011;27666;51.498;11.966;2023-03-01T09:48:00;18.47;;;9.80;;
17955;SDS011;27666;51.498;11.966;2023-03-01T09:50:49;15.43;;;9.33;;
17955;SDS011;27666;51.498;11.966;2023-03-01T09:53:37;17.53;;;10.37;;
17955;SDS011;27666;51.498;11.966;2023-03-01T09:56:27;18.20;;;10.03;;
17955;SDS011;27666;51.498;11.966;2023-03-01T09:59:20;18.60;;;10.97;;
17955;SDS011;27666;51.498;11.966;2023-03-01T10:02:19;19.37;;;11.43;;
17955;SDS011;27666;51.498;11.966;2023-03-01T10:05:28;15.23;;;9.60;;
17955;SDS011;27666;51.498;11.966;2023-03-01T10:08:26;18.17;;;10.40;;
17955;SDS011;27666;51.498;11.966;2023-03-01T10:11:20;16.80;;;10.17;;
17955;SDS011;27666;51.498;11.966;2023-03-01T10:14:15;15.70;;;10.13;;
17955;SDS011;27666;51.498;11.966;2023-03-01T10:17:12;17.17;;;10.20;;
17955;SDS011;27666;51.498;11.966;2023-03-01T10:20:19;19.10;;;10.63;;
17955;SDS011;27666;51.498;11.966;2023-03-01T10:23:07;15.97;;;9.47;;
17955;SDS011;27666;51.498;11.966;2023-03-01T10:26:08;17.13;;;10.07;;
17955;SDS011;27666;51.498;11.966;2023-03-01T10:29:15;17.30;;;10.23;;
17955;SDS011;27666;51.498;11.966;2023-03-01T10:32:02;17.17;;;10.53;;
17955;SDS011;27666;51.498;11.966;2023-03-01T10:34:52;15.83;;;9.90;;
17955;SDS011;27666;51.498;11.966;2023-03-01T10:37:45;18.00;;;10.17;;
17955;SDS011;27666;51.498;11.966;2023-03-01T10:40:53;15.63;;;9.70;;
17955;SDS011;27666;51.498;11.966;2023-03-01T10:43:43;16.07;;;10.67;;
17955;SDS011;27666;51.498;11.966;2023-03-01T10:46:32;15.73;;;9.83;;
17955;SDS011;27666;51.498;11.966;2023-03-01T10:49:21;16.70;;;10.30;;
17955;SDS011;27666;51.498;11.966;2023-03-01T10:52:18;19.17;;;10.17;;
17955;SDS011;27666;51.498;11.966;2023-03-01T10:55:19;20.50;;;11.10;;
17955;SDS011;27666;51.498;11.966;2023-03-01T10:58:17;18.23;;;9.57;;
17955;SDS011;27666;51.498;11.966;2023-03-01T11:01:05;18.93;;;10.03;;
17955;SDS011;27666;51.498;11.966;2023-03-01T11:04:11;16.83;;;10.07;;
17955;SDS011;27666;51.498;11.966;2023-03-01T11:07:00;16.03;;;9.73;;
17955;SDS011;27666;51.498;11.966;2023-03-01T11:09:49;16.47;;;9.37;;
17955;SDS011;27666;51.498;11.966;2023-03-01T11:12:36;13.40;;;8.53;;
17955;SDS011;27666;51.498;11.966;2023-03-01T11:15:24;18.30;;;8.73;;
17955;SDS011;27666;51.498;11.966;2023-03-01T11:18:18;13.67;;;8.17;;
17955;SDS011;27666;51.498;11.966;2023-03-01T11:21:17;14.37;;;8.63;;
17955;SDS011;27666;51.498;11.966;2023-03-01T11:24:04;11.97;;;7.00;;
17955;SDS011;27666;51.498;11.966;2023-03-01T11:26:57;11.17;;;7.40;;
17955;SDS011;27666;51.498;11.966;2023-03-01T11:29:48;12.93;;;8.33;;
17955;SDS011;27666;51.498;11.966;2023-03-01T11:32:40;13.70;;;8.37;;
17955;SDS011;27666;51.498;11.966;2023-03-01T11:35:30;13.30;;;7.70;;
17955;SDS011;27666;51.498;11.966;2023-03-01T11:38:21;14.77;;;8.17;;
17955;SDS011;27666;51.498;11.966;2023-03-01T11:41:11;16.30;;;8.50;;
17955;SDS011;27666;51.498;11.966;2023-03-01T11:44:03;19.97;;;7.93;;
17955;SDS011;27666;51.498;11.966;2023-03-01T11:47:04;13.17;;;7.53;;
17955;SDS011;27666;51.498;11.966;2023-03-01T11:50:05;11.57;;;6.90;;
17955;SDS011;27666;51.498;11.966;2023-03-01T11:53:01;11.83;;;7.10;;
17955;SDS011;27666;51.498;11.966;2023-03-01T11:56:09;12.80;;;7.03;;
17955;SDS011;27666;51.498;11.966;2023-03-01T11:59:23;13.50;;;6.87;;
17955;SDS011;27666;51.498;11.966;2023-03-01T12:02:22;9.30;;;6.20;;
17955;SDS011;27666;51.498;11.966;2023-03-01T12:05:31;13.53;;;7.97;;
17955;SDS011;27666;51.498;11.966;2023-03-01T12:08:37;15.70;;;7.93;;
17955;SDS011;27666;51.498;11.966;2023-03-01T12:11:30;12.67;;;7.90;;
17955;SDS011;27666;51.498;11.966;2023-03-01T12:14:32;11.00;;;7.00;;
17955;SDS011;27666;51.498;11.966;2023-03-01T12:17:35;12.97;;;7.13;;
17955;SDS011;27666;51.498;11.966;2023-03-01T12:20:34;12.83;;;6.67;;
17955;SDS011;27666;51.498;11.966;2023-03-01T12:23:36;10.47;;;7.10;;
17955;SDS011;27666;51.498;11.966;2023-03-01T12:26:41;13.00;;;7.27;;
17955;SDS011;27666;51.498;11.966;2023-03-01T12:29:39;12.43;;;7.17;;
17955;SDS011;27666;51.498;11.966;2023-03-01T12:32:38;17.33;;;7.13;;
17955;SDS011;27666;51.498;11.966;2023-03-01T12:35:37;11.17;;;7.13;;
17955;SDS011;27666;51.498;11.966;2023-03-01T12:38:41;15.77;;;6.70;;
17955;SDS011;27666;51.498;11.966;2023-03-01T12:41:34;12.30;;;6.70;;
17955;SDS011;27666;51.498;11.966;2023-03-01T12:44:36;14.27;;;6.47;;
17955;SDS011;27666;51.498;11.966;2023-03-01T12:47:41;9.33;;;6.17;;
17955;SDS011;27666;51.498;11.966;2023-03-01T12:50:44;12.43;;;6.97;;
17955;SDS011;27666;51.498;11.966;2023-03-01T12:53:34;11.17;;;6.23;;
17955;SDS011;27666;51.498;11.966;2023-03-01T12:56:25;12.60;;;6.87;;
17955;SDS011;27666;51.498;11.966;2023-03-01T12:59:17;8.53;;;6.37;;
17955;SDS011;27666;51.498;11.966;2023-03-01T13:02:13;11.40;;;6.17;;
17955;SDS011;27666;51.498;11.966;2023-03-01T13:05:10;16.03;;;7.40;;
17955;SDS011;27666;51.498;11.966;2023-03-01T13:08:10;13.93;;;7.90;;
17955;SDS011;27666;51.498;11.966;2023-03-01T13:11:03;14.47;;;7.13;;
17955;SDS011;27666;51.498;11.966;2023-03-01T13:13:51;10.10;;;6.53;;
17955;SDS011;27666;51.498;11.966;2023-03-01T13:16:40;12.03;;;6.57;;
17955;SDS011;27666;51.498;11.966;2023-03-01T13:19:31;8.87;;;6.70;;
17955;SDS011;27666;51.498;11.966;2023-03-01T13:22:27;9.97;;;6.60;;
17955;SDS011;27666;51.498;11.966;2023-03-01T13:25:17;10.97;;;6.37;;
17955;SDS011;27666;51.498;11.966;2023-03-01T13:34:52;8.53;;;5.57;;
17955;SDS011;27666;51.498;11.966;2023-03-01T13:37:40;9.40;;;5.90;;
17955;SDS011;27666;51.498;11.966;2023-03-01T13:43:45;7.27;;;5.63;;
17955;SDS011;27666;51.498;11.966;2023-03-01T13:46:33;20.13;;;6.97;;
17955;SDS011;27666;51.498;11.966;2023-03-01T13:49:21;9.80;;;6.00;;
17955;SDS011;27666;51.498;11.966;2023-03-01T13:52:21;7.97;;;5.60;;
17955;SDS011;27666;51.498;11.966;2023-03-01T13:55:27;8.27;;;4.90;;
17955;SDS011;27666;51.498;11.966;2023-03-01T13:58:21;9.00;;;5.20;;
17955;SDS011;27666;51.498;11.966;2023-03-01T14:01:18;9.03;;;5.77;;
17955;SDS011;27666;51.498;11.966;2023-03-01T14:04:18;7.93;;;5.00;;
17955;SDS011;27666;51.498;11.966;2023-03-01T14:07:11;8.90;;;5.67;;
17955;SDS011;27666;51.498;11.966;2023-03-01T14:10:00;9.13;;;5.60;;
17955;SDS011;27666;51.498;11.966;2023-03-01T14:12:50;7.10;;;4.93;;
17955;SDS011;27666;51.498;11.966;2023-03-01T14:15:48;9.10;;;4.90;;
17955;SDS011;27666;51.498;11.966;2023-03-01T14:18:44;9.27;;;5.13;;
17955;SDS011;27666;51.498;11.966;2023-03-01T14:21:38;8.20;;;4.47;;
17955;SDS011;27666;51.498;11.966;2023-03-01T14:24:24;9.43;;;4.67;;
17955;SDS011;27666;51.498;11.966;2023-03-01T14:27:13;7.50;;;4.83;;
17955;SDS011;27666;51.498;11.966;2023-03-01T14:30:01;6.87;;;4.57;;
17955;SDS011;27666;51.498;11.966;2023-03-01T14:32:52;7.60;;;4.33;;
17955;SDS011;27666;51.498;11.966;2023-03-01T14:35:40;8.13;;;5.00;;
17955;SDS011;27666;51.498;11.966;2023-03-01T14:38:32;16.20;;;8.77;;
17955;SDS011;27666;51.498;11.966;2023-03-01T14:41:21;7.60;;;4.77;;
17955;SDS011;27666;51.498;11.966;2023-03-01T14:44:14;11.93;;;7.30;;
17955;SDS011;27666;51.498;11.966;2023-03-01T14:47:04;9.73;;;5.93;;
17955;SDS011;27666;51.498;11.966;2023-03-01T14:49:53;12.13;;;8.27;;
17955;SDS011;27666;51.498;11.966;2023-03-01T14:52:45;13.13;;;7.60;;
17955;SDS011;27666;51.498;11.966;2023-03-01T14:55:34;8.47;;;5.30;;
17955;SDS011;27666;51.498;11.966;2023-03-01T14:58:24;5.17;;;3.73;;
17955;SDS011;27666;51.498;11.966;2023-03-01T15:01:13;8.73;;;5.67;;
17955;SDS011;27666;51.498;11.966;2023-03-01T15:04:02;6.63;;;4.60;;
17955;SDS011;27666;51.498;11.966;2023-03-01T15:06:49;6.03;;;4.30;;
17955;SDS011;27666;51.498;11.966;2023-03-01T15:09:39;6.60;;;4.63;;
17955;SDS011;27666;51.498;11.966;2023-03-01T15:12:36;7.73;;;4.93;;
17955;SDS011;27666;51.498;11.966;2023-03-01T15:15:33;7.97;;;4.00;;
17955;SDS011;27666;51.498;11.966;2023-03-01T15:18:25;8.03;;;5.70;;
17955;SDS011;27666;51.498;11.966;2023-03-01T15:21:15;6.30;;;4.30;;
17955;SDS011;27666;51.498;11.966;2023-03-01T15:24:05;5.87;;;4.10;;
17955;SDS011;27666;51.498;11.966;2023-03-01T15:26:56;9.70;;;4.83;;
17955;SDS011;27666;51.498;11.966;2023-03-01T15:29:48;9.27;;;5.27;;
17955;SDS011;27666;51.498;11.966;2023-03-01T15:32:36;6.77;;;4.60;;
17955;SDS011;27666;51.498;11.966;2023-03-01T15:35:39;9.87;;;5.47;;
17955;SDS011;27666;51.498;11.966;2023-03-01T15:38:29;8.60;;;5.40;;
17955;SDS011;27666;51.498;11.966;2023-03-01T15:41:26;8.40;;;5.10;;
17955;SDS011;27666;51.498;11.966;2023-03-01T15:44:16;8.40;;;4.90;;
17955;SDS011;27666;51.498;11.966;2023-03-01T15:47:05;9.53;;;5.07;;
17955;SDS011;27666;51.498;11.966;2023-03-01T15:50:12;10.00;;;5.40;;
17955;SDS011;27666;51.498;11.966;2023-03-01T15:53:05;7.77;;;5.13;;
17955;SDS011;27666;51.498;11.966;2023-03-01T15:55:55;9.57;;;5.30;;
17955;SDS011;27666;51.498;11.966;2023-03-01T15:58:44;8.87;;;5.30;;
17955;SDS011;27666;51.498;11.966;2023-03-01T16:01:31;11.30;;;5.17;;
17955;SDS011;27666;51.498;11.966;2023-03-01T16:04:19;7.57;;;5.40;;
17955;SDS011;27666;51.498;11.966;2023-03-01T16:07:09;10.50;;;5.73;;
17955;SDS011;27666;51.498;11.966;2023-03-01T16:09:57;8.67;;;5.33;;
17955;SDS011;27666;51.498;11.966;2023-03-01T16:12:43;11.13;;;5.40;;
17955;SDS011;27666;51.498;11.966;2023-03-01T16:15:32;9.07;;;5.50;;
17955;SDS011;27666;51.498;11.966;2023-03-01T16:18:20;13.73;;;5.73;;
17955;SDS011;27666;51.498;11.966;2023-03-01T16:21:06;8.27;;;5.57;;
17955;SDS011;27666;51.498;11.966;2023-03-01T16:23:56;9.17;;;6.27;;
17955;SDS011;27666;51.498;11.966;2023-03-01T16:26:44;9.63;;;6.30;;
17955;SDS011;27666;51.498;11.966;2023-03-01T16:29:31;11.50;;;6.50;;
17955;SDS011;27666;51.498;11.966;2023-03-01T16:32:18;8.63;;;5.50;;
17955;SDS011;27666;51.498;11.966;2023-03-01T16:35:05;11.50;;;5.87;;
17955;SDS011;27666;51.498;11.966;2023-03-01T16:37:52;8.30;;;5.57;;
17955;SDS011;27666;51.498;11.966;2023-03-01T16:40:39;10.13;;;5.73;;